Hampton Bridge — 9HA3280 — position and weather

sailwx.info

Track history (hours):
 
Tides and Currents Weather Stations Pressure Air Temp Water Temp Dewpoint Dewpoint Depression Visibility Wind Speed Wind Dir Waves Ship Positions

Hampton Bridge

Last reported at 2017-Oct-23 08:44 UTC. Time now 2017-Nov-20 13:39 UTC.
Position N 31°06' E 122°27'.
Warning: this ship's position is 28 days out of date.

Length 223 m; draft 7.8 m.

Type: Cargo ship. MMSI: 229373000.

Date/timePositionNaut miles runAvg speedWind from/ knotsBaromVisibWave heightAir tempDewpointWater temp
2017-Oct-23 08:44N 31°06' E 122°27'2 7.5
2017-Oct-23 08:30N 31°06' E 122°25'611.3
2017-Oct-23 08:00N 31°06' E 122°18'612.6
2017-Oct-23 07:30N 31°10' E 122°12'510.9
2017-Oct-23 07:00N 31°13' E 122°07'612.6
2017-Oct-23 06:30N 31°15' E 121°60'510.3
2017-Oct-23 06:00N 31°16' E 121°54'510.3
2017-Oct-23 05:30N 31°17' E 121°48'5 9.3
2017-Oct-23 05:00N 31°19' E 121°43'4 8.4
2017-Oct-23 04:30N 31°21' E 121°39'510.7
2017-Oct-23 04:00N 31°24' E 121°33'4 8.3
2017-Oct-23 03:30N 31°26' E 121°29'4 8.9
2017-Oct-23 03:00N 31°29' E 121°26'611.5
2017-Oct-23 02:30N 31°33' E 121°20'713.8
2017-Oct-23 02:00N 31°38' E 121°15'714.4
2017-Oct-23 01:30N 31°42' E 121°08'713.7
2017-Oct-23 00:59N 31°46' E 121°02'  
2017-Oct-19 12:39N 31°46' E 121°01'1 5.7
2017-Oct-19 12:27N 31°46' E 121°03'4 8.8
2017-Oct-19 12:00N 31°44' E 121°06'5 9.2
2017-Oct-19 11:30N 31°41' E 121°10'4 8.8
2017-Oct-19 11:00N 31°38' E 121°15'5 9.6
2017-Oct-19 10:30N 31°35' E 121°18'510.4
2017-Oct-19 10:00N 31°31' E 121°23'5 9.9
2017-Oct-19 09:30N 31°28' E 121°27'4 8.2
2017-Oct-19 09:00N 31°25' E 121°31'3 6.4
2017-Oct-19 08:30N 31°24' E 121°34'3 6.8
2017-Oct-19 08:00N 31°22' E 121°37'4 7.3
2017-Oct-19 07:30N 31°20' E 121°41'4 8.5
2017-Oct-19 07:00N 31°18' E 121°46'4 8.2
2017-Oct-19 06:30N 31°17' E 121°50'4 8.6
2017-Oct-19 06:00N 31°16' E 121°55'4 8.7
2017-Oct-19 05:30N 31°15' E 121°60'5 9.4
2017-Oct-19 05:00N 31°14' E 122°05'4 8.4
2017-Oct-19 04:30N 31°12' E 122°09'3 6.5
2017-Oct-19 04:00N 31°10' E 122°12'5 9.6
2017-Oct-19 03:28N 31°07' E 122°17'4 9.2
2017-Oct-19 03:00N 31°06' E 122°22'  
Track history (hours):
 
Tides and Currents Weather Stations Pressure Air Temp Water Temp Dewpoint Dewpoint Depression Visibility Wind Speed Wind Dir Waves Ship Positions

Hampton Bridge

Last reported at 2017-Oct-23 08:44 UTC. Time now 2017-Nov-20 13:39 UTC.
Position N 31°06' E 122°27'.
Warning: this ship's position is 28 days out of date.

Length 223 m; draft 7.8 m.

Type: Cargo ship. MMSI: 229373000.

Date/timePositionNaut miles runAvg speedWind from/ knotsBaromVisibWave heightAir tempDewpointWater temp
2017-Oct-23 08:44N 31°06' E 122°27'2 7.5
2017-Oct-23 08:30N 31°06' E 122°25'611.3
2017-Oct-23 08:00N 31°06' E 122°18'612.6
2017-Oct-23 07:30N 31°10' E 122°12'510.9
2017-Oct-23 07:00N 31°13' E 122°07'612.6
2017-Oct-23 06:30N 31°15' E 121°60'510.3
2017-Oct-23 06:00N 31°16' E 121°54'510.3
2017-Oct-23 05:30N 31°17' E 121°48'5 9.3
2017-Oct-23 05:00N 31°19' E 121°43'4 8.4
2017-Oct-23 04:30N 31°21' E 121°39'510.7
2017-Oct-23 04:00N 31°24' E 121°33'4 8.3
2017-Oct-23 03:30N 31°26' E 121°29'4 8.9
2017-Oct-23 03:00N 31°29' E 121°26'611.5
2017-Oct-23 02:30N 31°33' E 121°20'713.8
2017-Oct-23 02:00N 31°38' E 121°15'714.4
2017-Oct-23 01:30N 31°42' E 121°08'713.7
2017-Oct-23 00:59N 31°46' E 121°02'  
2017-Oct-19 12:39N 31°46' E 121°01'1 5.7
2017-Oct-19 12:27N 31°46' E 121°03'4 8.8
2017-Oct-19 12:00N 31°44' E 121°06'5 9.2
2017-Oct-19 11:30N 31°41' E 121°10'4 8.8
2017-Oct-19 11:00N 31°38' E 121°15'5 9.6
2017-Oct-19 10:30N 31°35' E 121°18'510.4
2017-Oct-19 10:00N 31°31' E 121°23'5 9.9
2017-Oct-19 09:30N 31°28' E 121°27'4 8.2
2017-Oct-19 09:00N 31°25' E 121°31'3 6.4
2017-Oct-19 08:30N 31°24' E 121°34'3 6.8
2017-Oct-19 08:00N 31°22' E 121°37'4 7.3
2017-Oct-19 07:30N 31°20' E 121°41'4 8.5
2017-Oct-19 07:00N 31°18' E 121°46'4 8.2
2017-Oct-19 06:30N 31°17' E 121°50'4 8.6
2017-Oct-19 06:00N 31°16' E 121°55'4 8.7
2017-Oct-19 05:30N 31°15' E 121°60'5 9.4
2017-Oct-19 05:00N 31°14' E 122°05'4 8.4
2017-Oct-19 04:30N 31°12' E 122°09'3 6.5
2017-Oct-19 04:00N 31°10' E 122°12'5 9.6
2017-Oct-19 03:28N 31°07' E 122°17'4 9.2
2017-Oct-19 03:00N 31°06' E 122°22'  

Dump ship's entire track history